sensor_id;sensor_type;location;lat;lon;timestamp;temperature;humidity
74484;SHT31;62942;52.462;10.846;2022-12-26T00:00:21;10.8;94
74484;SHT31;62942;52.462;10.846;2022-12-26T00:01:22;10.8;94
74484;SHT31;62942;52.462;10.846;2022-12-26T00:02:31;10.8;94.1
74484;SHT31;62942;52.462;10.846;2022-12-26T00:03:42;10.8;93.9
74484;SHT31;62942;52.462;10.846;2022-12-26T00:04:51;10.9;94
74484;SHT31;62942;52.462;10.846;2022-12-26T00:05:51;10.9;94
74484;SHT31;62942;52.462;10.846;2022-12-26T00:07:01;10.9;94
74484;SHT31;62942;52.462;10.846;2022-12-26T00:08:03;10.9;93.9
74484;SHT31;62942;52.462;10.846;2022-12-26T00:09:11;10.9;93.8
74484;SHT31;62942;52.462;10.846;2022-12-26T00:10:11;10.9;93.9
74484;SHT31;62942;52.462;10.846;2022-12-26T00:11:11;10.9;93.9
74484;SHT31;62942;52.462;10.846;2022-12-26T00:12:21;10.9;93.9
74484;SHT31;62942;52.462;10.846;2022-12-26T00:13:21;10.9;93.9
74484;SHT31;62942;52.462;10.846;2022-12-26T00:14:31;10.9;93.7
74484;SHT31;62942;52.462;10.846;2022-12-26T00:15:31;10.9;93.7
74484;SHT31;62942;52.462;10.846;2022-12-26T00:16:41;10.9;93.7
74484;SHT31;62942;52.462;10.846;2022-12-26T00:17:51;10.9;93.7
74484;SHT31;62942;52.462;10.846;2022-12-26T00:19:01;10.9;93.9
74484;SHT31;62942;52.462;10.846;2022-12-26T00:20:01;10.9;94
74484;SHT31;62942;52.462;10.846;2022-12-26T00:21:01;10.9;94.2
74484;SHT31;62942;52.462;10.846;2022-12-26T00:22:01;10.8;94.3
74484;SHT31;62942;52.462;10.846;2022-12-26T00:23:11;10.8;94.1
74484;SHT31;62942;52.462;10.846;2022-12-26T00:24:11;10.8;94.3
74484;SHT31;62942;52.462;10.846;2022-12-26T00:25:21;10.7;94.4
74484;SHT31;62942;52.462;10.846;2022-12-26T00:26:31;10.7;95.1
74484;SHT31;62942;52.462;10.846;2022-12-26T00:27:41;10.6;95.1
74484;SHT31;62942;52.462;10.846;2022-12-26T00:28:41;10.6;95.2
74484;SHT31;62942;52.462;10.846;2022-12-26T00:29:41;10.6;95.3
74484;SHT31;62942;52.462;10.846;2022-12-26T00:30:51;10.6;95.2
74484;SHT31;62942;52.462;10.846;2022-12-26T00:32:01;10.6;95.3
74484;SHT31;62942;52.462;10.846;2022-12-26T00:33:01;10.6;95.4
74484;SHT31;62942;52.462;10.846;2022-12-26T00:34:01;10.6;95.3
74484;SHT31;62942;52.462;10.846;2022-12-26T00:35:01;10.6;95.3
74484;SHT31;62942;52.462;10.846;2022-12-26T00:36:01;10.6;95.5
74484;SHT31;62942;52.462;10.846;2022-12-26T00:37:01;10.6;95.4
74484;SHT31;62942;52.462;10.846;2022-12-26T00:38:11;10.6;95.5
74484;SHT31;62942;52.462;10.846;2022-12-26T00:39:11;10.5;95.5
74484;SHT31;62942;52.462;10.846;2022-12-26T00:40:21;10.5;95.4
74484;SHT31;62942;52.462;10.846;2022-12-26T00:41:21;10.5;95.4
74484;SHT31;62942;52.462;10.846;2022-12-26T00:42:31;10.5;95.4
74484;SHT31;62942;52.462;10.846;2022-12-26T00:43:31;10.5;95.4
74484;SHT31;62942;52.462;10.846;2022-12-26T00:44:31;10.5;95.5
74484;SHT31;62942;52.462;10.846;2022-12-26T00:45:43;10.5;95.4
74484;SHT31;62942;52.462;10.846;2022-12-26T00:46:51;10.5;95.5
74484;SHT31;62942;52.462;10.846;2022-12-26T00:47:51;10.5;95.6
74484;SHT31;62942;52.462;10.846;2022-12-26T00:49:01;10.5;95.5
74484;SHT31;62942;52.462;10.846;2022-12-26T00:50:01;10.5;95.5
74484;SHT31;62942;52.462;10.846;2022-12-26T00:51:01;10.5;95.6
74484;SHT31;62942;52.462;10.846;2022-12-26T00:52:11;10.5;95.6
74484;SHT31;62942;52.462;10.846;2022-12-26T00:53:21;10.5;95.6
74484;SHT31;62942;52.462;10.846;2022-12-26T00:54:31;10.5;95.6
74484;SHT31;62942;52.462;10.846;2022-12-26T00:55:41;10.5;95.6
74484;SHT31;62942;52.462;10.846;2022-12-26T00:56:51;10.5;95.7
74484;SHT31;62942;52.462;10.846;2022-12-26T00:57:51;10.5;95.7
74484;SHT31;62942;52.462;10.846;2022-12-26T00:58:51;10.5;95.7
74484;SHT31;62942;52.462;10.846;2022-12-26T01:00:01;10.5;95.7
74484;SHT31;62942;52.462;10.846;2022-12-26T01:01:12;10.5;95.7
74484;SHT31;62942;52.462;10.846;2022-12-26T01:02:11;10.5;95.7
74484;SHT31;62942;52.462;10.846;2022-12-26T01:03:21;10.5;95.8
74484;SHT31;62942;52.462;10.846;2022-12-26T01:04:21;10.5;95.7
74484;SHT31;62942;52.462;10.846;2022-12-26T01:05:21;10.5;95.8
74484;SHT31;62942;52.462;10.846;2022-12-26T01:06:31;10.5;95.9
74484;SHT31;62942;52.462;10.846;2022-12-26T01:07:31;10.5;95.9
74484;SHT31;62942;52.462;10.846;2022-12-26T01:08:41;10.5;95.9
74484;SHT31;62942;52.462;10.846;2022-12-26T01:09:41;10.6;95.8
74484;SHT31;62942;52.462;10.846;2022-12-26T01:10:51;10.5;95.9
74484;SHT31;62942;52.462;10.846;2022-12-26T01:11:51;10.5;95.9
74484;SHT31;62942;52.462;10.846;2022-12-26T01:13:01;10.5;96
74484;SHT31;62942;52.462;10.846;2022-12-26T01:14:12;10.6;95.9
74484;SHT31;62942;52.462;10.846;2022-12-26T01:15:11;10.5;95.9
74484;SHT31;62942;52.462;10.846;2022-12-26T01:16:11;10.6;96
74484;SHT31;62942;52.462;10.846;2022-12-26T01:17:11;10.6;95.9
74484;SHT31;62942;52.462;10.846;2022-12-26T01:18:21;10.6;95.9
74484;SHT31;62942;52.462;10.846;2022-12-26T01:19:31;10.6;95.9
74484;SHT31;62942;52.462;10.846;2022-12-26T01:20:41;10.6;95.9
74484;SHT31;62942;52.462;10.846;2022-12-26T01:21:51;10.6;95.9
74484;SHT31;62942;52.462;10.846;2022-12-26T01:23:01;10.5;95.9
74484;SHT31;62942;52.462;10.846;2022-12-26T01:24:11;10.5;95.9
74484;SHT31;62942;52.462;10.846;2022-12-26T01:25:11;10.5;96
74484;SHT31;62942;52.462;10.846;2022-12-26T01:26:21;10.5;96.1
74484;SHT31;62942;52.462;10.846;2022-12-26T01:27:21;10.5;96.1
74484;SHT31;62942;52.462;10.846;2022-12-26T01:28:21;10.5;96.1
74484;SHT31;62942;52.462;10.846;2022-12-26T01:29:21;10.5;96.1
74484;SHT31;62942;52.462;10.846;2022-12-26T01:30:31;10.6;96.1
74484;SHT31;62942;52.462;10.846;2022-12-26T01:31:41;10.6;96.1
74484;SHT31;62942;52.462;10.846;2022-12-26T01:32:41;10.6;96.2
74484;SHT31;62942;52.462;10.846;2022-12-26T01:33:51;10.6;96.2
74484;SHT31;62942;52.462;10.846;2022-12-26T01:35:00;10.6;96.2
74484;SHT31;62942;52.462;10.846;2022-12-26T01:36:01;10.6;96.1
74484;SHT31;62942;52.462;10.846;2022-12-26T01:37:11;10.6;96.2
74484;SHT31;62942;52.462;10.846;2022-12-26T01:38:11;10.6;96.2
74484;SHT31;62942;52.462;10.846;2022-12-26T01:39:21;10.6;96.1
74484;SHT31;62942;52.462;10.846;2022-12-26T01:40:21;10.6;96.1
74484;SHT31;62942;52.462;10.846;2022-12-26T01:41:30;10.6;96.1
74484;SHT31;62942;52.462;10.846;2022-12-26T01:42:34;10.6;96.1
74484;SHT31;62942;52.462;10.846;2022-12-26T01:43:49;10.6;96
74484;SHT31;62942;52.462;10.846;2022-12-26T01:44:53;10.6;96
74484;SHT31;62942;52.462;10.846;2022-12-26T01:46:00;10.6;96.1
74484;SHT31;62942;52.462;10.846;2022-12-26T01:47:01;10.6;96.1
74484;SHT31;62942;52.462;10.846;2022-12-26T01:48:01;10.6;96.1
74484;SHT31;62942;52.462;10.846;2022-12-26T01:49:12;10.6;96
74484;SHT31;62942;52.462;10.846;2022-12-26T01:50:25;10.6;96
74484;SHT31;62942;52.462;10.846;2022-12-26T01:51:21;10.6;96
74484;SHT31;62942;52.462;10.846;2022-12-26T01:52:22;10.5;96
74484;SHT31;62942;52.462;10.846;2022-12-26T01:53:32;10.5;96
74484;SHT31;62942;52.462;10.846;2022-12-26T01:54:32;10.5;96.1
74484;SHT31;62942;52.462;10.846;2022-12-26T01:55:41;10.5;96.1
74484;SHT31;62942;52.462;10.846;2022-12-26T01:56:41;10.5;96.1
74484;SHT31;62942;52.462;10.846;2022-12-26T01:57:52;10.5;96.2
74484;SHT31;62942;52.462;10.846;2022-12-26T01:58:51;10.5;96.1
74484;SHT31;62942;52.462;10.846;2022-12-26T01:59:50;10.5;96.2
74484;SHT31;62942;52.462;10.846;2022-12-26T02:01:01;10.5;96.2
74484;SHT31;62942;52.462;10.846;2022-12-26T02:02:11;10.5;96.2
74484;SHT31;62942;52.462;10.846;2022-12-26T02:03:20;10.5;96.2
74484;SHT31;62942;52.462;10.846;2022-12-26T02:04:21;10.5;96.2
74484;SHT31;62942;52.462;10.846;2022-12-26T02:05:30;10.4;96.3
74484;SHT31;62942;52.462;10.846;2022-12-26T02:06:40;10.4;96.2
74484;SHT31;62942;52.462;10.846;2022-12-26T02:07:50;10.4;96.2
74484;SHT31;62942;52.462;10.846;2022-12-26T02:08:50;10.4;96.3
74484;SHT31;62942;52.462;10.846;2022-12-26T02:10:00;10.4;96.5
74484;SHT31;62942;52.462;10.846;2022-12-26T02:11:03;10.4;96.6
74484;SHT31;62942;52.462;10.846;2022-12-26T02:12:01;10.4;96.5
74484;SHT31;62942;52.462;10.846;2022-12-26T02:13:10;10.4;96.5
74484;SHT31;62942;52.462;10.846;2022-12-26T02:14:10;10.4;96.6
74484;SHT31;62942;52.462;10.846;2022-12-26T02:15:21;10.4;96.5
74484;SHT31;62942;52.462;10.846;2022-12-26T02:16:31;10.4;96.5
74484;SHT31;62942;52.462;10.846;2022-12-26T02:17:31;10.4;96.6
74484;SHT31;62942;52.462;10.846;2022-12-26T02:18:30;10.4;96.7
74484;SHT31;62942;52.462;10.846;2022-12-26T02:19:32;10.4;96.6
74484;SHT31;62942;52.462;10.846;2022-12-26T02:20:42;10.4;96.6
74484;SHT31;62942;52.462;10.846;2022-12-26T02:21:50;10.4;96.7
74484;SHT31;62942;52.462;10.846;2022-12-26T02:22:46;10.4;96.7
74484;SHT31;62942;52.462;10.846;2022-12-26T02:23:57;10.4;96.7
74484;SHT31;62942;52.462;10.846;2022-12-26T02:24:57;10.4;96.7
74484;SHT31;62942;52.462;10.846;2022-12-26T02:27:26;10.3;96.7
74484;SHT31;62942;52.462;10.846;2022-12-26T02:27:55;10.4;96.7
74484;SHT31;62942;52.462;10.846;2022-12-26T02:29:07;10.3;96.7
74484;SHT31;62942;52.462;10.846;2022-12-26T02:30:04;10.3;96.7
74484;SHT31;62942;52.462;10.846;2022-12-26T02:31:11;10.3;96.7
74484;SHT31;62942;52.462;10.846;2022-12-26T02:32:22;10.3;96.7
74484;SHT31;62942;52.462;10.846;2022-12-26T02:33:34;10.3;96.7
74484;SHT31;62942;52.462;10.846;2022-12-26T02:34:42;10.3;96.7
74484;SHT31;62942;52.462;10.846;2022-12-26T02:35:54;10.3;96.7
74484;SHT31;62942;52.462;10.846;2022-12-26T02:36:55;10.3;96.7
74484;SHT31;62942;52.462;10.846;2022-12-26T02:38:03;10.3;96.7
74484;SHT31;62942;52.462;10.846;2022-12-26T02:39:04;10.3;96.7
74484;SHT31;62942;52.462;10.846;2022-12-26T02:40:03;10.3;96.7
74484;SHT31;62942;52.462;10.846;2022-12-26T02:41:02;10.3;96.7
74484;SHT31;62942;52.462;10.846;2022-12-26T02:42:13;10.3;96.7
74484;SHT31;62942;52.462;10.846;2022-12-26T02:43:14;10.3;96.7
74484;SHT31;62942;52.462;10.846;2022-12-26T02:44:12;10.3;96.7
74484;SHT31;62942;52.462;10.846;2022-12-26T02:45:22;10.3;96.7
74484;SHT31;62942;52.462;10.846;2022-12-26T02:46:31;10.3;96.7
74484;SHT31;62942;52.462;10.846;2022-12-26T02:47:32;10.3;96.6
74484;SHT31;62942;52.462;10.846;2022-12-26T02:48:42;10.3;96.6
74484;SHT31;62942;52.462;10.846;2022-12-26T02:49:45;10.3;96.6
74484;SHT31;62942;52.462;10.846;2022-12-26T02:50:52;10.3;96.6
74484;SHT31;62942;52.462;10.846;2022-12-26T02:52:03;10.3;96.6
74484;SHT31;62942;52.462;10.846;2022-12-26T02:53:11;10.3;96.6
74484;SHT31;62942;52.462;10.846;2022-12-26T02:54:14;10.3;96.6
74484;SHT31;62942;52.462;10.846;2022-12-26T02:55:21;10.3;96.6
74484;SHT31;62942;52.462;10.846;2022-12-26T02:56:21;10.3;96.5
74484;SHT31;62942;52.462;10.846;2022-12-26T02:57:32;10.3;96.5
74484;SHT31;62942;52.462;10.846;2022-12-26T02:58:41;10.3;96.5
74484;SHT31;62942;52.462;10.846;2022-12-26T02:59:43;10.3;96.5
74484;SHT31;62942;52.462;10.846;2022-12-26T03:00:52;10.3;96.5
74484;SHT31;62942;52.462;10.846;2022-12-26T03:02:00;10.3;96.5
74484;SHT31;62942;52.462;10.846;2022-12-26T03:03:11;10.3;96.4
74484;SHT31;62942;52.462;10.846;2022-12-26T03:04:11;10.3;96.4
74484;SHT31;62942;52.462;10.846;2022-12-26T03:05:11;10.3;96.4
74484;SHT31;62942;52.462;10.846;2022-12-26T03:06:12;10.3;96.4
74484;SHT31;62942;52.462;10.846;2022-12-26T03:07:12;10.3;96.4
74484;SHT31;62942;52.462;10.846;2022-12-26T03:08:22;10.3;96.4
74484;SHT31;62942;52.462;10.846;2022-12-26T03:09:21;10.3;96.3
74484;SHT31;62942;52.462;10.846;2022-12-26T03:10:31;10.3;96.3
74484;SHT31;62942;52.462;10.846;2022-12-26T03:11:41;10.3;96.4
74484;SHT31;62942;52.462;10.846;2022-12-26T03:12:51;10.3;96.2
74484;SHT31;62942;52.462;10.846;2022-12-26T03:13:51;10.3;96.3
74484;SHT31;62942;52.462;10.846;2022-12-26T03:14:51;10.3;96.3
74484;SHT31;62942;52.462;10.846;2022-12-26T03:16:01;10.3;96.2
74484;SHT31;62942;52.462;10.846;2022-12-26T03:17:11;10.3;96.1
74484;SHT31;62942;52.462;10.846;2022-12-26T03:18:21;10.3;96.1
74484;SHT31;62942;52.462;10.846;2022-12-26T03:19:30;10.3;96.1
74484;SHT31;62942;52.462;10.846;2022-12-26T03:20:40;10.3;96
74484;SHT31;62942;52.462;10.846;2022-12-26T03:21:50;10.3;95.9
74484;SHT31;62942;52.462;10.846;2022-12-26T03:22:51;10.3;96
74484;SHT31;62942;52.462;10.846;2022-12-26T03:24:00;10.3;95.9
74484;SHT31;62942;52.462;10.846;2022-12-26T03:25:02;10.3;96
74484;SHT31;62942;52.462;10.846;2022-12-26T03:26:01;10.3;96
74484;SHT31;62942;52.462;10.846;2022-12-26T03:27:10;10.3;96
74484;SHT31;62942;52.462;10.846;2022-12-26T03:28:10;10.3;96
74484;SHT31;62942;52.462;10.846;2022-12-26T03:29:11;10.3;96.1
74484;SHT31;62942;52.462;10.846;2022-12-26T03:30:10;10.3;96.1
74484;SHT31;62942;52.462;10.846;2022-12-26T03:31:20;10.3;96.1
74484;SHT31;62942;52.462;10.846;2022-12-26T03:32:33;10.3;96.1
74484;SHT31;62942;52.462;10.846;2022-12-26T03:33:31;10.3;96.1
74484;SHT31;62942;52.462;10.846;2022-12-26T03:34:41;10.3;96.2
74484;SHT31;62942;52.462;10.846;2022-12-26T03:35:50;10.3;96.2
74484;SHT31;62942;52.462;10.846;2022-12-26T03:36:55;10.3;96.2
74484;SHT31;62942;52.462;10.846;2022-12-26T03:37:51;10.3;96.3
74484;SHT31;62942;52.462;10.846;2022-12-26T03:39:02;10.3;96.3
74484;SHT31;62942;52.462;10.846;2022-12-26T03:40:03;10.3;96.2
74484;SHT31;62942;52.462;10.846;2022-12-26T03:41:02;10.3;96.2
74484;SHT31;62942;52.462;10.846;2022-12-26T03:42:11;10.3;96.2
74484;SHT31;62942;52.462;10.846;2022-12-26T03:43:24;10.3;96.2
74484;SHT31;62942;52.462;10.846;2022-12-26T03:44:31;10.3;96.3
74484;SHT31;62942;52.462;10.846;2022-12-26T03:45:33;10.2;96.3
74484;SHT31;62942;52.462;10.846;2022-12-26T03:46:45;10.3;96.4
74484;SHT31;62942;52.462;10.846;2022-12-26T03:47:52;10.2;96.4
74484;SHT31;62942;52.462;10.846;2022-12-26T03:49:03;10.2;96.4
74484;SHT31;62942;52.462;10.846;2022-12-26T03:50:02;10.2;96.5
74484;SHT31;62942;52.462;10.846;2022-12-26T03:51:02;10.2;96.4
74484;SHT31;62942;52.462;10.846;2022-12-26T03:52:13;10.2;96.5
74484;SHT31;62942;52.462;10.846;2022-12-26T03:53:21;10.2;96.5
74484;SHT31;62942;52.462;10.846;2022-12-26T03:54:31;10.2;96.4
74484;SHT31;62942;52.462;10.846;2022-12-26T03:55:33;10.2;96.5
74484;SHT31;62942;52.462;10.846;2022-12-26T03:56:32;10.1;96.5
74484;SHT31;62942;52.462;10.846;2022-12-26T03:57:42;10.1;96.5
74484;SHT31;62942;52.462;10.846;2022-12-26T03:58:43;10.1;96.6
74484;SHT31;62942;52.462;10.846;2022-12-26T03:59:42;10.1;96.5
74484;SHT31;62942;52.462;10.846;2022-12-26T04:00:40;10.1;96.6
74484;SHT31;62942;52.462;10.846;2022-12-26T04:01:40;10.1;96.6
74484;SHT31;62942;52.462;10.846;2022-12-26T04:02:51;10.1;96.7
74484;SHT31;62942;52.462;10.846;2022-12-26T04:04:00;10.1;96.7
74484;SHT31;62942;52.462;10.846;2022-12-26T04:05:00;10.1;96.6
74484;SHT31;62942;52.462;10.846;2022-12-26T04:06:01;10.1;96.7
74484;SHT31;62942;52.462;10.846;2022-12-26T04:07:11;10.1;96.7
74484;SHT31;62942;52.462;10.846;2022-12-26T04:08:22;10.1;96.7
74484;SHT31;62942;52.462;10.846;2022-12-26T04:09:31;10.1;96.8
74484;SHT31;62942;52.462;10.846;2022-12-26T04:10:41;10;96.7
74484;SHT31;62942;52.462;10.846;2022-12-26T04:11:50;10;96.7
74484;SHT31;62942;52.462;10.846;2022-12-26T04:13:00;10;96.7
74484;SHT31;62942;52.462;10.846;2022-12-26T04:14:12;10;96.7
74484;SHT31;62942;52.462;10.846;2022-12-26T04:15:12;9.9;96.7
74484;SHT31;62942;52.462;10.846;2022-12-26T04:16:13;9.9;96.8
74484;SHT31;62942;52.462;10.846;2022-12-26T04:17:11;9.9;96.9
74484;SHT31;62942;52.462;10.846;2022-12-26T04:18:21;9.9;96.8
74484;SHT31;62942;52.462;10.846;2022-12-26T04:19:25;9.9;96.9
74484;SHT31;62942;52.462;10.846;2022-12-26T04:20:21;9.9;96.8
74484;SHT31;62942;52.462;10.846;2022-12-26T04:21:33;9.9;96.8
74484;SHT31;62942;52.462;10.846;2022-12-26T04:22:33;9.9;96.9
74484;SHT31;62942;52.462;10.846;2022-12-26T04:23:42;9.9;96.9
74484;SHT31;62942;52.462;10.846;2022-12-26T04:24:51;9.9;97
74484;SHT31;62942;52.462;10.846;2022-12-26T04:25:51;9.9;96.9
74484;SHT31;62942;52.462;10.846;2022-12-26T04:26:51;9.9;96.9
74484;SHT31;62942;52.462;10.846;2022-12-26T04:28:00;9.8;96.9
74484;SHT31;62942;52.462;10.846;2022-12-26T04:29:00;9.8;96.9
74484;SHT31;62942;52.462;10.846;2022-12-26T04:30:00;9.8;96.9
74484;SHT31;62942;52.462;10.846;2022-12-26T04:31:11;9.8;96.9
74484;SHT31;62942;52.462;10.846;2022-12-26T04:32:12;9.8;96.9
74484;SHT31;62942;52.462;10.846;2022-12-26T04:33:22;9.8;96.9
74484;SHT31;62942;52.462;10.846;2022-12-26T04:34:31;9.8;97
74484;SHT31;62942;52.462;10.846;2022-12-26T04:35:32;9.8;97
74484;SHT31;62942;52.462;10.846;2022-12-26T04:36:42;9.8;97.1
74484;SHT31;62942;52.462;10.846;2022-12-26T04:37:50;9.8;97.1
74484;SHT31;62942;52.462;10.846;2022-12-26T04:39:01;9.8;97
74484;SHT31;62942;52.462;10.846;2022-12-26T04:40:00;9.8;97
74484;SHT31;62942;52.462;10.846;2022-12-26T04:41:10;9.8;97.1
74484;SHT31;62942;52.462;10.846;2022-12-26T04:42:10;9.7;97.1
74484;SHT31;62942;52.462;10.846;2022-12-26T04:43:20;9.7;97.1
74484;SHT31;62942;52.462;10.846;2022-12-26T04:44:20;9.7;97.1
74484;SHT31;62942;52.462;10.846;2022-12-26T04:45:30;9.7;97.1
74484;SHT31;62942;52.462;10.846;2022-12-26T04:46:30;9.7;97.1
74484;SHT31;62942;52.462;10.846;2022-12-26T04:47:40;9.7;97.1
74484;SHT31;62942;52.462;10.846;2022-12-26T04:48:40;9.6;97.1
74484;SHT31;62942;52.462;10.846;2022-12-26T04:49:50;9.6;97.1
74484;SHT31;62942;52.462;10.846;2022-12-26T04:50:51;9.6;97.1
74484;SHT31;62942;52.462;10.846;2022-12-26T04:52:01;9.5;97
74484;SHT31;62942;52.462;10.846;2022-12-26T04:53:10;9.5;97
74484;SHT31;62942;52.462;10.846;2022-12-26T04:54:20;9.5;97.1
74484;SHT31;62942;52.462;10.846;2022-12-26T04:55:31;9.4;97.1
74484;SHT31;62942;52.462;10.846;2022-12-26T04:56:30;9.4;97.1
74484;SHT31;62942;52.462;10.846;2022-12-26T04:57:40;9.4;97.2
74484;SHT31;62942;52.462;10.846;2022-12-26T04:58:40;9.4;97.1
74484;SHT31;62942;52.462;10.846;2022-12-26T04:59:50;9.4;97
74484;SHT31;62942;52.462;10.846;2022-12-26T05:01:00;9.5;97.3
74484;SHT31;62942;52.462;10.846;2022-12-26T05:02:10;9.5;97.5
74484;SHT31;62942;52.462;10.846;2022-12-26T05:03:11;9.5;97.5
74484;SHT31;62942;52.462;10.846;2022-12-26T05:04:11;9.6;97.5
74484;SHT31;62942;52.462;10.846;2022-12-26T05:05:20;9.6;97.5
74484;SHT31;62942;52.462;10.846;2022-12-26T05:06:20;9.6;97.5
74484;SHT31;62942;52.462;10.846;2022-12-26T05:07:31;9.6;97.5
74484;SHT31;62942;52.462;10.846;2022-12-26T05:08:32;9.6;97.5
74484;SHT31;62942;52.462;10.846;2022-12-26T05:09:40;9.6;97.4
74484;SHT31;62942;52.462;10.846;2022-12-26T05:10:40;9.6;97.4
74484;SHT31;62942;52.462;10.846;2022-12-26T05:11:50;9.6;97.4
74484;SHT31;62942;52.462;10.846;2022-12-26T05:13:00;9.6;97.4
74484;SHT31;62942;52.462;10.846;2022-12-26T05:14:00;9.5;97.3
74484;SHT31;62942;52.462;10.846;2022-12-26T05:15:10;9.5;97.4
74484;SHT31;62942;52.462;10.846;2022-12-26T05:16:21;9.5;97.3
74484;SHT31;62942;52.462;10.846;2022-12-26T05:17:20;9.4;97.3
74484;SHT31;62942;52.462;10.846;2022-12-26T05:18:20;9.4;97.3
74484;SHT31;62942;52.462;10.846;2022-12-26T05:19:30;9.4;97.2
74484;SHT31;62942;52.462;10.846;2022-12-26T05:20:30;9.4;97.2
74484;SHT31;62942;52.462;10.846;2022-12-26T05:21:40;9.4;97.1
74484;SHT31;62942;52.462;10.846;2022-12-26T05:22:50;9.4;97.2
74484;SHT31;62942;52.462;10.846;2022-12-26T05:24:00;9.4;97.2
74484;SHT31;62942;52.462;10.846;2022-12-26T05:25:11;9.4;97.2
74484;SHT31;62942;52.462;10.846;2022-12-26T05:26:10;9.4;97.2
74484;SHT31;62942;52.462;10.846;2022-12-26T05:27:20;9.4;97.2
74484;SHT31;62942;52.462;10.846;2022-12-26T05:28:30;9.3;97.2
74484;SHT31;62942;52.462;10.846;2022-12-26T05:29:30;9.4;97.3
74484;SHT31;62942;52.462;10.846;2022-12-26T05:30:40;9.4;97.2
74484;SHT31;62942;52.462;10.846;2022-12-26T05:31:40;9.3;97.3
74484;SHT31;62942;52.462;10.846;2022-12-26T05:32:50;9.4;97.3
74484;SHT31;62942;52.462;10.846;2022-12-26T05:33:50;9.4;97.3
74484;SHT31;62942;52.462;10.846;2022-12-26T05:35:00;9.4;97.2
74484;SHT31;62942;52.462;10.846;2022-12-26T05:36:00;9.4;97.3
74484;SHT31;62942;52.462;10.846;2022-12-26T05:37:10;9.4;97.3
74484;SHT31;62942;52.462;10.846;2022-12-26T05:38:20;9.4;97.3
74484;SHT31;62942;52.462;10.846;2022-12-26T05:39:30;9.4;97.3
74484;SHT31;62942;52.462;10.846;2022-12-26T05:40:30;9.4;97.3
74484;SHT31;62942;52.462;10.846;2022-12-26T05:41:30;9.5;97.3
74484;SHT31;62942;52.462;10.846;2022-12-26T05:42:40;9.5;97.3
74484;SHT31;62942;52.462;10.846;2022-12-26T05:43:50;9.5;97.3
74484;SHT31;62942;52.462;10.846;2022-12-26T05:45:00;9.5;97.3
74484;SHT31;62942;52.462;10.846;2022-12-26T05:46:00;9.5;97.3
74484;SHT31;62942;52.462;10.846;2022-12-26T05:47:10;9.5;97.3
74484;SHT31;62942;52.462;10.846;2022-12-26T05:48:10;9.5;97.3
74484;SHT31;62942;52.462;10.846;2022-12-26T05:49:20;9.5;97.3
74484;SHT31;62942;52.462;10.846;2022-12-26T05:50:30;9.5;97.2
74484;SHT31;62942;52.462;10.846;2022-12-26T05:51:40;9.6;97.2
74484;SHT31;62942;52.462;10.846;2022-12-26T05:52:50;9.6;97.1
74484;SHT31;62942;52.462;10.846;2022-12-26T05:53:50;9.6;97.1
74484;SHT31;62942;52.462;10.846;2022-12-26T05:55:00;9.6;97.1
74484;SHT31;62942;52.462;10.846;2022-12-26T05:56:11;9.6;97
74484;SHT31;62942;52.462;10.846;2022-12-26T05:57:10;9.6;97
74484;SHT31;62942;52.462;10.846;2022-12-26T05:58:20;9.6;96.9
74484;SHT31;62942;52.462;10.846;2022-12-26T05:59:30;9.6;96.8
74484;SHT31;62942;52.462;10.846;2022-12-26T06:00:40;9.6;96.9
74484;SHT31;62942;52.462;10.846;2022-12-26T06:01:50;9.6;96.8
74484;SHT31;62942;52.462;10.846;2022-12-26T06:03:00;9.6;96.8
74484;SHT31;62942;52.462;10.846;2022-12-26T06:04:00;9.6;96.7
74484;SHT31;62942;52.462;10.846;2022-12-26T06:05:10;9.6;96.8
74484;SHT31;62942;52.462;10.846;2022-12-26T06:06:10;9.6;96.6
74484;SHT31;62942;52.462;10.846;2022-12-26T06:07:20;9.6;96.6
74484;SHT31;62942;52.462;10.846;2022-12-26T06:08:30;9.6;96.6
74484;SHT31;62942;52.462;10.846;2022-12-26T06:09:30;9.6;96.6
74484;SHT31;62942;52.462;10.846;2022-12-26T06:10:30;9.5;96.5
74484;SHT31;62942;52.462;10.846;2022-12-26T06:11:30;9.6;96.5
74484;SHT31;62942;52.462;10.846;2022-12-26T06:12:30;9.5;96.5
74484;SHT31;62942;52.462;10.846;2022-12-26T06:13:40;9.5;96.5
74484;SHT31;62942;52.462;10.846;2022-12-26T06:14:50;9.4;96.4
74484;SHT31;62942;52.462;10.846;2022-12-26T06:16:02;9.4;96.4
74484;SHT31;62942;52.462;10.846;2022-12-26T06:17:00;9.4;96.4
74484;SHT31;62942;52.462;10.846;2022-12-26T06:18:10;9.3;96.4
74484;SHT31;62942;52.462;10.846;2022-12-26T06:19:20;9.3;96.4
74484;SHT31;62942;52.462;10.846;2022-12-26T06:20:30;9.3;96.4
74484;SHT31;62942;52.462;10.846;2022-12-26T06:21:40;9.3;96.4
74484;SHT31;62942;52.462;10.846;2022-12-26T06:22:50;9.2;96.4
74484;SHT31;62942;52.462;10.846;2022-12-26T06:24:00;9.3;96.4
74484;SHT31;62942;52.462;10.846;2022-12-26T06:25:10;9.3;96.6
74484;SHT31;62942;52.462;10.846;2022-12-26T06:26:20;9.3;96.5
74484;SHT31;62942;52.462;10.846;2022-12-26T06:27:20;9.3;96.5
74484;SHT31;62942;52.462;10.846;2022-12-26T06:28:30;9.3;96.5
74484;SHT31;62942;52.462;10.846;2022-12-26T06:29:30;9.2;96.5
74484;SHT31;62942;52.462;10.846;2022-12-26T06:30:40;9.2;96.6
74484;SHT31;62942;52.462;10.846;2022-12-26T06:31:50;9.2;96.6
74484;SHT31;62942;52.462;10.846;2022-12-26T06:32:50;9.2;96.6
74484;SHT31;62942;52.462;10.846;2022-12-26T06:34:00;9.2;96.6
74484;SHT31;62942;52.462;10.846;2022-12-26T06:35:10;9.2;96.6
74484;SHT31;62942;52.462;10.846;2022-12-26T06:36:11;9.2;96.5
74484;SHT31;62942;52.462;10.846;2022-12-26T06:37:20;9.2;96.4
74484;SHT31;62942;52.462;10.846;2022-12-26T06:38:20;9.2;96.4
74484;SHT31;62942;52.462;10.846;2022-12-26T06:39:30;9.2;96.3
74484;SHT31;62942;52.462;10.846;2022-12-26T06:40:40;9.2;96.2
74484;SHT31;62942;52.462;10.846;2022-12-26T06:41:40;9.2;96.2
74484;SHT31;62942;52.462;10.846;2022-12-26T06:42:50;9.2;96.3
74484;SHT31;62942;52.462;10.846;2022-12-26T06:43:50;9.2;96.2
74484;SHT31;62942;52.462;10.846;2022-12-26T06:45:00;9.2;96.2
74484;SHT31;62942;52.462;10.846;2022-12-26T06:46:01;9.2;96
74484;SHT31;62942;52.462;10.846;2022-12-26T06:47:10;9.2;95.9
74484;SHT31;62942;52.462;10.846;2022-12-26T06:48:20;9.2;96.1
74484;SHT31;62942;52.462;10.846;2022-12-26T06:49:20;9.2;96
74484;SHT31;62942;52.462;10.846;2022-12-26T06:50:20;9.1;96
74484;SHT31;62942;52.462;10.846;2022-12-26T06:51:30;9.1;96
74484;SHT31;62942;52.462;10.846;2022-12-26T06:52:30;9.1;96
74484;SHT31;62942;52.462;10.846;2022-12-26T06:53:40;9.1;95.9
74484;SHT31;62942;52.462;10.846;2022-12-26T06:54:50;9.1;96
74484;SHT31;62942;52.462;10.846;2022-12-26T06:56:04;9;95.9
74484;SHT31;62942;52.462;10.846;2022-12-26T06:57:10;9.1;95.9
74484;SHT31;62942;52.462;10.846;2022-12-26T06:58:20;9;96
74484;SHT31;62942;52.462;10.846;2022-12-26T06:59:20;9;95.9
74484;SHT31;62942;52.462;10.846;2022-12-26T07:00:30;9;95.9
74484;SHT31;62942;52.462;10.846;2022-12-26T07:01:40;9;95.9
74484;SHT31;62942;52.462;10.846;2022-12-26T07:02:50;9;95.9
74484;SHT31;62942;52.462;10.846;2022-12-26T07:04:00;9;95.9
74484;SHT31;62942;52.462;10.846;2022-12-26T07:05:00;9;96
74484;SHT31;62942;52.462;10.846;2022-12-26T07:06:12;9;96
74484;SHT31;62942;52.462;10.846;2022-12-26T07:07:20;9;96